sensor_id;sensor_type;location;lat;lon;timestamp;pressure;altitude;pressure_sealevel;temperature;humidity
10202;BME280;5143;42.584;23.164;2023-03-25T00:01:30;92295.81;;;9.79;100.00
10202;BME280;5143;42.584;23.164;2023-03-25T00:03:58;92299.41;;;9.96;100.00
10202;BME280;5143;42.584;23.164;2023-03-25T00:06:26;92299.63;;;9.93;100.00
10202;BME280;5143;42.584;23.164;2023-03-25T00:08:53;92296.41;;;9.94;100.00
10202;BME280;5143;42.584;23.164;2023-03-25T00:11:20;92290.28;;;9.99;100.00
10202;BME280;5143;42.584;23.164;2023-03-25T00:13:47;92301.19;;;9.99;100.00
10202;BME280;5143;42.584;23.164;2023-03-25T00:16:14;92291.28;;;10.02;100.00
10202;BME280;5143;42.584;23.164;2023-03-25T00:18:43;92292.72;;;9.97;100.00
10202;BME280;5143;42.584;23.164;2023-03-25T00:21:13;92276.63;;;9.99;100.00
10202;BME280;5143;42.584;23.164;2023-03-25T00:23:40;92284.63;;;10.08;100.00
10202;BME280;5143;42.584;23.164;2023-03-25T00:26:07;92280.25;;;10.22;100.00
10202;BME280;5143;42.584;23.164;2023-03-25T00:28:36;92274.53;;;10.15;100.00
10202;BME280;5143;42.584;23.164;2023-03-25T00:31:04;92269.31;;;10.17;100.00
10202;BME280;5143;42.584;23.164;2023-03-25T00:33:32;92258.56;;;10.02;100.00
10202;BME280;5143;42.584;23.164;2023-03-25T00:36:00;92278.41;;;10.08;100.00
10202;BME280;5143;42.584;23.164;2023-03-25T00:38:32;92268.88;;;9.92;100.00
10202;BME280;5143;42.584;23.164;2023-03-25T00:41:10;92274.28;;;9.87;100.00
10202;BME280;5143;42.584;23.164;2023-03-25T00:43:38;92271.22;;;9.74;100.00
10202;BME280;5143;42.584;23.164;2023-03-25T00:46:05;92269.94;;;9.64;100.00
10202;BME280;5143;42.584;23.164;2023-03-25T00:48:31;92264.63;;;9.55;100.00
10202;BME280;5143;42.584;23.164;2023-03-25T00:50:58;92261.38;;;9.50;100.00
10202;BME280;5143;42.584;23.164;2023-03-25T00:53:33;92270.03;;;9.49;100.00
10202;BME280;5143;42.584;23.164;2023-03-25T00:55:59;92265.25;;;9.38;100.00
10202;BME280;5143;42.584;23.164;2023-03-25T00:58:27;92262.94;;;9.31;100.00
10202;BME280;5143;42.584;23.164;2023-03-25T01:00:54;92250.25;;;9.23;100.00
10202;BME280;5143;42.584;23.164;2023-03-25T01:03:22;92245.44;;;9.12;100.00
10202;BME280;5143;42.584;23.164;2023-03-25T01:05:49;92253.84;;;9.09;100.00
10202;BME280;5143;42.584;23.164;2023-03-25T01:08:19;92242.13;;;9.03;100.00
10202;BME280;5143;42.584;23.164;2023-03-25T01:10:52;92252.06;;;9.06;100.00
10202;BME280;5143;42.584;23.164;2023-03-25T01:13:19;92246.03;;;8.96;100.00
10202;BME280;5143;42.584;23.164;2023-03-25T01:15:46;92243.09;;;9.00;100.00
10202;BME280;5143;42.584;23.164;2023-03-25T01:18:13;92231.44;;;8.99;100.00
10202;BME280;5143;42.584;23.164;2023-03-25T01:20:40;92238.19;;;9.04;100.00
10202;BME280;5143;42.584;23.164;2023-03-25T01:23:07;92231.75;;;9.07;100.00
10202;BME280;5143;42.584;23.164;2023-03-25T01:25:35;92238.78;;;9.13;100.00
10202;BME280;5143;42.584;23.164;2023-03-25T01:28:03;92229.09;;;9.12;100.00
10202;BME280;5143;42.584;23.164;2023-03-25T01:30:30;92219.41;;;9.06;100.00
10202;BME280;5143;42.584;23.164;2023-03-25T01:32:57;92212.25;;;9.08;100.00
10202;BME280;5143;42.584;23.164;2023-03-25T01:35:24;92216.50;;;9.15;100.00
10202;BME280;5143;42.584;23.164;2023-03-25T01:37:51;92213.09;;;9.20;100.00
10202;BME280;5143;42.584;23.164;2023-03-25T01:40:20;92205.84;;;9.11;100.00
10202;BME280;5143;42.584;23.164;2023-03-25T01:42:48;92189.41;;;9.00;100.00
10202;BME280;5143;42.584;23.164;2023-03-25T01:45:23;92201.59;;;9.10;100.00
10202;BME280;5143;42.584;23.164;2023-03-25T01:47:55;92186.41;;;8.98;100.00
10202;BME280;5143;42.584;23.164;2023-03-25T01:50:25;92199.75;;;8.96;100.00
10202;BME280;5143;42.584;23.164;2023-03-25T01:52:55;92199.44;;;8.88;100.00
10202;BME280;5143;42.584;23.164;2023-03-25T01:55:22;92196.66;;;8.83;100.00
10202;BME280;5143;42.584;23.164;2023-03-25T01:57:53;92197.16;;;8.81;100.00
10202;BME280;5143;42.584;23.164;2023-03-25T02:00:22;92202.03;;;8.77;100.00
10202;BME280;5143;42.584;23.164;2023-03-25T02:02:51;92187.63;;;8.71;100.00
10202;BME280;5143;42.584;23.164;2023-03-25T02:05:28;92185.13;;;8.68;100.00
10202;BME280;5143;42.584;23.164;2023-03-25T02:07:58;92187.81;;;8.62;100.00
10202;BME280;5143;42.584;23.164;2023-03-25T02:10:25;92193.25;;;8.62;100.00
10202;BME280;5143;42.584;23.164;2023-03-25T02:12:52;92184.84;;;8.40;100.00
10202;BME280;5143;42.584;23.164;2023-03-25T02:15:18;92186.97;;;8.16;100.00
10202;BME280;5143;42.584;23.164;2023-03-25T02:18:02;92185.09;;;8.02;100.00
10202;BME280;5143;42.584;23.164;2023-03-25T02:21:03;92187.66;;;7.91;100.00
10202;BME280;5143;42.584;23.164;2023-03-25T02:23:56;92186.28;;;7.81;100.00
10202;BME280;5143;42.584;23.164;2023-03-25T02:33:07;92189.94;;;7.43;100.00
10202;BME280;5143;42.584;23.164;2023-03-25T02:35:52;92188.75;;;7.29;100.00
10202;BME280;5143;42.584;23.164;2023-03-25T02:38:31;92191.47;;;7.14;100.00
10202;BME280;5143;42.584;23.164;2023-03-25T02:41:05;92189.91;;;7.08;100.00
10202;BME280;5143;42.584;23.164;2023-03-25T02:43:40;92188.72;;;6.94;100.00
10202;BME280;5143;42.584;23.164;2023-03-25T02:46:10;92185.06;;;6.83;100.00
10202;BME280;5143;42.584;23.164;2023-03-25T02:48:43;92178.88;;;6.68;100.00
10202;BME280;5143;42.584;23.164;2023-03-25T02:51:18;92181.97;;;6.61;100.00
10202;BME280;5143;42.584;23.164;2023-03-25T02:53:49;92179.91;;;6.56;100.00
10202;BME280;5143;42.584;23.164;2023-03-25T02:56:19;92190.53;;;6.44;100.00
10202;BME280;5143;42.584;23.164;2023-03-25T02:58:51;92182.84;;;6.28;100.00
10202;BME280;5143;42.584;23.164;2023-03-25T03:01:19;92181.72;;;6.20;100.00
10202;BME280;5143;42.584;23.164;2023-03-25T03:03:47;92177.75;;;6.07;100.00
10202;BME280;5143;42.584;23.164;2023-03-25T03:06:16;92175.38;;;6.00;100.00
10202;BME280;5143;42.584;23.164;2023-03-25T03:08:59;92179.88;;;6.03;100.00
10202;BME280;5143;42.584;23.164;2023-03-25T03:11:31;92182.19;;;5.95;100.00
10202;BME280;5143;42.584;23.164;2023-03-25T03:14:14;92175.47;;;5.90;100.00
10202;BME280;5143;42.584;23.164;2023-03-25T03:16:49;92173.53;;;5.82;100.00
10202;BME280;5143;42.584;23.164;2023-03-25T03:19:31;92179.28;;;5.75;100.00
10202;BME280;5143;42.584;23.164;2023-03-25T03:22:10;92173.63;;;5.64;100.00
10202;BME280;5143;42.584;23.164;2023-03-25T03:24:43;92174.31;;;5.50;100.00
10202;BME280;5143;42.584;23.164;2023-03-25T03:27:14;92164.75;;;5.40;100.00
10202;BME280;5143;42.584;23.164;2023-03-25T03:29:51;92168.53;;;5.33;100.00
10202;BME280;5143;42.584;23.164;2023-03-25T03:32:25;92176.84;;;5.29;100.00
10202;BME280;5143;42.584;23.164;2023-03-25T03:34:56;92182.06;;;5.33;100.00
10202;BME280;5143;42.584;23.164;2023-03-25T03:37:27;92181.66;;;5.25;100.00
10202;BME280;5143;42.584;23.164;2023-03-25T03:39:57;92179.88;;;5.22;100.00
10202;BME280;5143;42.584;23.164;2023-03-25T03:42:28;92175.06;;;5.17;100.00
10202;BME280;5143;42.584;23.164;2023-03-25T03:45:00;92173.75;;;5.13;100.00
10202;BME280;5143;42.584;23.164;2023-03-25T03:47:29;92169.53;;;5.12;100.00
10202;BME280;5143;42.584;23.164;2023-03-25T03:49:59;92169.41;;;5.06;100.00
10202;BME280;5143;42.584;23.164;2023-03-25T03:52:32;92164.66;;;4.92;100.00
10202;BME280;5143;42.584;23.164;2023-03-25T03:55:06;92173.69;;;4.89;100.00
10202;BME280;5143;42.584;23.164;2023-03-25T03:57:38;92169.06;;;4.81;100.00
10202;BME280;5143;42.584;23.164;2023-03-25T04:00:08;92175.81;;;4.76;100.00
10202;BME280;5143;42.584;23.164;2023-03-25T04:02:39;92183.94;;;4.76;100.00
10202;BME280;5143;42.584;23.164;2023-03-25T04:05:08;92177.63;;;4.70;100.00
10202;BME280;5143;42.584;23.164;2023-03-25T04:07:39;92187.88;;;4.66;100.00
10202;BME280;5143;42.584;23.164;2023-03-25T04:10:12;92182.91;;;4.64;100.00
10202;BME280;5143;42.584;23.164;2023-03-25T04:12:42;92188.03;;;4.62;100.00
10202;BME280;5143;42.584;23.164;2023-03-25T04:15:11;92188.03;;;4.62;100.00
10202;BME280;5143;42.584;23.164;2023-03-25T04:17:39;92185.47;;;4.59;100.00
10202;BME280;5143;42.584;23.164;2023-03-25T04:20:06;92186.41;;;4.56;100.00
10202;BME280;5143;42.584;23.164;2023-03-25T04:22:36;92185.50;;;4.50;100.00
10202;BME280;5143;42.584;23.164;2023-03-25T04:25:04;92181.75;;;4.47;100.00
10202;BME280;5143;42.584;23.164;2023-03-25T04:27:32;92180.25;;;4.46;100.00
10202;BME280;5143;42.584;23.164;2023-03-25T04:30:03;92181.16;;;4.43;100.00
10202;BME280;5143;42.584;23.164;2023-03-25T04:32:30;92187.44;;;4.49;100.00
10202;BME280;5143;42.584;23.164;2023-03-25T04:34:57;92188.34;;;4.55;100.00
10202;BME280;5143;42.584;23.164;2023-03-25T04:37:24;92182.34;;;4.51;100.00
10202;BME280;5143;42.584;23.164;2023-03-25T04:39:51;92189.69;;;4.60;100.00
10202;BME280;5143;42.584;23.164;2023-03-25T04:42:20;92191.34;;;4.66;100.00
10202;BME280;5143;42.584;23.164;2023-03-25T04:44:51;92193.56;;;4.68;100.00
10202;BME280;5143;42.584;23.164;2023-03-25T04:47:20;92194.47;;;4.74;100.00
10202;BME280;5143;42.584;23.164;2023-03-25T04:49:48;92194.31;;;4.78;100.00
10202;BME280;5143;42.584;23.164;2023-03-25T04:52:15;92195.03;;;4.87;100.00
10202;BME280;5143;42.584;23.164;2023-03-25T04:54:42;92191.41;;;4.90;100.00
10202;BME280;5143;42.584;23.164;2023-03-25T04:57:10;92196.63;;;5.03;100.00
10202;BME280;5143;42.584;23.164;2023-03-25T04:59:37;92189.44;;;5.00;100.00
10202;BME280;5143;42.584;23.164;2023-03-25T05:02:06;92191.06;;;5.06;100.00
10202;BME280;5143;42.584;23.164;2023-03-25T05:04:37;92189.84;;;5.16;100.00
10202;BME280;5143;42.584;23.164;2023-03-25T05:07:06;92189.94;;;5.22;100.00
10202;BME280;5143;42.584;23.164;2023-03-25T05:09:33;92201.84;;;5.15;100.00
10202;BME280;5143;42.584;23.164;2023-03-25T05:12:00;92200.72;;;5.31;100.00
10202;BME280;5143;42.584;23.164;2023-03-25T05:14:26;92208.06;;;5.40;100.00
10202;BME280;5143;42.584;23.164;2023-03-25T05:16:53;92198.97;;;5.52;100.00
10202;BME280;5143;42.584;23.164;2023-03-25T05:19:23;92196.22;;;5.61;100.00
10202;BME280;5143;42.584;23.164;2023-03-25T05:21:49;92198.88;;;5.70;100.00
10202;BME280;5143;42.584;23.164;2023-03-25T05:24:16;92196.88;;;5.79;100.00
10202;BME280;5143;42.584;23.164;2023-03-25T05:26:43;92197.59;;;5.89;100.00
10202;BME280;5143;42.584;23.164;2023-03-25T05:29:12;92192.75;;;5.93;100.00
10202;BME280;5143;42.584;23.164;2023-03-25T05:31:40;92192.38;;;6.00;100.00
10202;BME280;5143;42.584;23.164;2023-03-25T05:34:06;92184.38;;;7.17;100.00
10202;BME280;5143;42.584;23.164;2023-03-25T05:36:35;92209.56;;;9.14;100.00
10202;BME280;5143;42.584;23.164;2023-03-25T05:39:02;92218.34;;;11.04;100.00
10202;BME280;5143;42.584;23.164;2023-03-25T05:41:29;92218.44;;;12.67;100.00
10202;BME280;5143;42.584;23.164;2023-03-25T05:43:58;92236.78;;;14.35;82.30
10202;BME280;5143;42.584;23.164;2023-03-25T05:46:26;92251.75;;;15.94;61.35
10202;BME280;5143;42.584;23.164;2023-03-25T05:48:54;92249.22;;;17.33;55.18
10202;BME280;5143;42.584;23.164;2023-03-25T05:51:23;92234.72;;;18.42;49.97
10202;BME280;5143;42.584;23.164;2023-03-25T05:53:52;92248.44;;;18.26;47.77
10202;BME280;5143;42.584;23.164;2023-03-25T05:56:20;92260.78;;;18.74;47.77
10202;BME280;5143;42.584;23.164;2023-03-25T05:58:49;92255.19;;;19.23;46.50
10202;BME280;5143;42.584;23.164;2023-03-25T06:01:19;92257.44;;;19.61;44.64
10202;BME280;5143;42.584;23.164;2023-03-25T06:03:46;92266.06;;;19.50;44.45
10202;BME280;5143;42.584;23.164;2023-03-25T06:06:14;92263.16;;;19.63;44.00
10202;BME280;5143;42.584;23.164;2023-03-25T06:08:42;92264.09;;;20.39;43.87
10202;BME280;5143;42.584;23.164;2023-03-25T06:11:11;92270.81;;;20.74;42.31
10202;BME280;5143;42.584;23.164;2023-03-25T06:13:39;92269.09;;;21.31;41.49
10202;BME280;5143;42.584;23.164;2023-03-25T06:16:07;92260.09;;;21.63;40.69
10202;BME280;5143;42.584;23.164;2023-03-25T06:18:34;92261.72;;;21.73;40.27
10202;BME280;5143;42.584;23.164;2023-03-25T06:21:02;92266.94;;;21.69;39.53
10202;BME280;5143;42.584;23.164;2023-03-25T06:23:30;92261.28;;;22.00;40.32
10202;BME280;5143;42.584;23.164;2023-03-25T06:26:00;92268.97;;;22.73;38.91
10202;BME280;5143;42.584;23.164;2023-03-25T06:28:30;92266.19;;;22.98;37.82
10202;BME280;5143;42.584;23.164;2023-03-25T06:30:57;92264.25;;;22.83;37.69
10202;BME280;5143;42.584;23.164;2023-03-25T06:33:27;92251.97;;;22.37;37.52
10202;BME280;5143;42.584;23.164;2023-03-25T06:35:54;92256.16;;;22.21;37.87
10202;BME280;5143;42.584;23.164;2023-03-25T06:38:21;92263.13;;;22.86;36.86
10202;BME280;5143;42.584;23.164;2023-03-25T06:40:47;92265.38;;;23.47;35.67
10202;BME280;5143;42.584;23.164;2023-03-25T06:43:14;92259.59;;;23.79;34.68
10202;BME280;5143;42.584;23.164;2023-03-25T06:45:43;92265.44;;;23.74;35.26
10202;BME280;5143;42.584;23.164;2023-03-25T06:48:09;92269.25;;;24.13;34.64
10202;BME280;5143;42.584;23.164;2023-03-25T06:50:36;92271.94;;;24.20;34.82
10202;BME280;5143;42.584;23.164;2023-03-25T06:53:03;92264.91;;;24.02;34.70
10202;BME280;5143;42.584;23.164;2023-03-25T06:55:30;92276.50;;;24.69;34.51
10202;BME280;5143;42.584;23.164;2023-03-25T06:57:56;92271.88;;;23.93;35.83
10202;BME280;5143;42.584;23.164;2023-03-25T07:00:23;92268.75;;;23.21;37.09
10202;BME280;5143;42.584;23.164;2023-03-25T07:02:52;92269.09;;;23.25;37.16
10202;BME280;5143;42.584;23.164;2023-03-25T07:05:19;92265.41;;;23.22;38.04
10202;BME280;5143;42.584;23.164;2023-03-25T07:07:46;92266.97;;;23.33;37.61
10202;BME280;5143;42.584;23.164;2023-03-25T07:10:13;92261.88;;;23.22;37.63
10202;BME280;5143;42.584;23.164;2023-03-25T07:12:40;92263.63;;;22.92;38.20
10202;BME280;5143;42.584;23.164;2023-03-25T07:15:07;92264.47;;;22.53;38.95
10202;BME280;5143;42.584;23.164;2023-03-25T07:17:34;92254.22;;;23.05;38.72
10202;BME280;5143;42.584;23.164;2023-03-25T07:20:03;92263.78;;;22.95;38.49
10202;BME280;5143;42.584;23.164;2023-03-25T07:22:30;92253.63;;;22.89;39.01
10202;BME280;5143;42.584;23.164;2023-03-25T07:24:57;92266.09;;;23.65;38.25
10202;BME280;5143;42.584;23.164;2023-03-25T07:27:24;92268.41;;;23.17;38.10
10202;BME280;5143;42.584;23.164;2023-03-25T07:29:51;92259.59;;;23.28;38.01
10202;BME280;5143;42.584;23.164;2023-03-25T07:32:18;92257.38;;;22.84;39.17
10202;BME280;5143;42.584;23.164;2023-03-25T07:34:44;92263.66;;;23.10;38.90
10202;BME280;5143;42.584;23.164;2023-03-25T07:37:13;92261.06;;;22.87;39.53
10202;BME280;5143;42.584;23.164;2023-03-25T07:39:39;92255.44;;;22.95;39.25
10202;BME280;5143;42.584;23.164;2023-03-25T07:42:06;92257.84;;;22.73;39.98
10202;BME280;5143;42.584;23.164;2023-03-25T07:44:33;92255.69;;;22.64;40.28
10202;BME280;5143;42.584;23.164;2023-03-25T07:47:00;92253.16;;;21.87;41.13
10202;BME280;5143;42.584;23.164;2023-03-25T07:49:27;92254.19;;;21.51;42.25
10202;BME280;5143;42.584;23.164;2023-03-25T07:51:53;92248.00;;;21.13;43.02
10202;BME280;5143;42.584;23.164;2023-03-25T07:54:22;92248.59;;;20.89;45.48
10202;BME280;5143;42.584;23.164;2023-03-25T07:56:48;92239.91;;;20.70;44.93
10202;BME280;5143;42.584;23.164;2023-03-25T07:59:17;92231.59;;;20.62;44.66
10202;BME280;5143;42.584;23.164;2023-03-25T08:01:43;92238.25;;;20.67;43.60
10202;BME280;5143;42.584;23.164;2023-03-25T08:04:10;92229.34;;;20.98;44.15
10202;BME280;5143;42.584;23.164;2023-03-25T08:06:38;92234.38;;;20.62;43.39
10202;BME280;5143;42.584;23.164;2023-03-25T08:09:04;92227.91;;;20.29;42.89
10202;BME280;5143;42.584;23.164;2023-03-25T08:11:33;92225.81;;;20.22;41.43
10202;BME280;5143;42.584;23.164;2023-03-25T08:13:59;92213.41;;;19.93;42.14
10202;BME280;5143;42.584;23.164;2023-03-25T08:16:26;92220.53;;;19.73;41.14
10202;BME280;5143;42.584;23.164;2023-03-25T08:18:53;92215.81;;;19.38;41.26
10202;BME280;5143;42.584;23.164;2023-03-25T08:21:20;92223.16;;;19.35;41.77
10202;BME280;5143;42.584;23.164;2023-03-25T08:23:50;92223.69;;;19.34;41.06
10202;BME280;5143;42.584;23.164;2023-03-25T08:26:16;92223.66;;;19.62;41.69
10202;BME280;5143;42.584;23.164;2023-03-25T08:28:44;92224.13;;;19.96;40.40
10202;BME280;5143;42.584;23.164;2023-03-25T08:31:12;92215.97;;;19.91;40.46
10202;BME280;5143;42.584;23.164;2023-03-25T08:33:39;92212.50;;;20.21;39.19
10202;BME280;5143;42.584;23.164;2023-03-25T08:36:08;92215.13;;;20.41;38.75
10202;BME280;5143;42.584;23.164;2023-03-25T08:38:38;92213.44;;;20.69;36.92
10202;BME280;5143;42.584;23.164;2023-03-25T08:41:06;92200.50;;;20.79;37.92
10202;BME280;5143;42.584;23.164;2023-03-25T08:43:33;92207.00;;;20.58;36.60
10202;BME280;5143;42.584;23.164;2023-03-25T08:46:01;92196.28;;;20.32;36.94
10202;BME280;5143;42.584;23.164;2023-03-25T08:48:28;92200.91;;;20.37;37.39
10202;BME280;5143;42.584;23.164;2023-03-25T08:50:55;92203.84;;;20.47;34.90
10202;BME280;5143;42.584;23.164;2023-03-25T08:53:22;92198.66;;;20.21;34.63
10202;BME280;5143;42.584;23.164;2023-03-25T08:55:50;92201.28;;;20.26;35.59
10202;BME280;5143;42.584;23.164;2023-03-25T08:58:17;92184.06;;;20.20;35.55
10202;BME280;5143;42.584;23.164;2023-03-25T09:00:44;92198.44;;;19.96;35.07
10202;BME280;5143;42.584;23.164;2023-03-25T09:03:12;92184.41;;;19.35;35.92
10202;BME280;5143;42.584;23.164;2023-03-25T09:05:39;92174.13;;;19.43;36.82
10202;BME280;5143;42.584;23.164;2023-03-25T09:08:06;92173.63;;;19.53;37.20
10202;BME280;5143;42.584;23.164;2023-03-25T09:10:33;92179.50;;;19.49;36.43
10202;BME280;5143;42.584;23.164;2023-03-25T09:12:59;92174.47;;;18.97;38.07
10202;BME280;5143;42.584;23.164;2023-03-25T09:15:26;92166.75;;;18.67;37.88
10202;BME280;5143;42.584;23.164;2023-03-25T09:17:53;92164.75;;;18.47;38.50
10202;BME280;5143;42.584;23.164;2023-03-25T09:20:21;92160.44;;;18.38;39.27
10202;BME280;5143;42.584;23.164;2023-03-25T09:22:48;92163.94;;;18.39;38.25
10202;BME280;5143;42.584;23.164;2023-03-25T09:25:15;92155.66;;;18.59;38.04
10202;BME280;5143;42.584;23.164;2023-03-25T09:27:42;92156.34;;;18.88;38.13
10202;BME280;5143;42.584;23.164;2023-03-25T09:30:09;92159.09;;;19.31;37.08
10202;BME280;5143;42.584;23.164;2023-03-25T09:32:36;92150.72;;;19.60;36.11
10202;BME280;5143;42.584;23.164;2023-03-25T09:35:04;92149.63;;;19.63;36.52
10202;BME280;5143;42.584;23.164;2023-03-25T09:37:32;92140.03;;;19.64;36.13
10202;BME280;5143;42.584;23.164;2023-03-25T09:39:59;92148.00;;;19.82;36.43
10202;BME280;5143;42.584;23.164;2023-03-25T09:42:37;92153.94;;;20.17;36.15
10202;BME280;5143;42.584;23.164;2023-03-25T09:45:15;92152.28;;;20.36;36.39
10202;BME280;5143;42.584;23.164;2023-03-25T09:47:50;92143.22;;;20.58;36.23
10202;BME280;5143;42.584;23.164;2023-03-25T09:50:20;92153.00;;;20.22;35.58
10202;BME280;5143;42.584;23.164;2023-03-25T09:52:53;92145.44;;;20.45;35.82
10202;BME280;5143;42.584;23.164;2023-03-25T09:55:25;92150.63;;;20.48;35.93
10202;BME280;5143;42.584;23.164;2023-03-25T09:57:56;92135.44;;;20.49;36.84
10202;BME280;5143;42.584;23.164;2023-03-25T10:00:26;92139.53;;;20.41;35.89
10202;BME280;5143;42.584;23.164;2023-03-25T10:02:59;92133.25;;;20.18;36.46
10202;BME280;5143;42.584;23.164;2023-03-25T10:08:33;92133.59;;;19.84;36.93
10202;BME280;5143;42.584;23.164;2023-03-25T10:11:09;92124.94;;;19.87;36.14
10202;BME280;5143;42.584;23.164;2023-03-25T10:13:46;92117.00;;;19.99;37.41
10202;BME280;5143;42.584;23.164;2023-03-25T10:16:23;92116.63;;;20.10;37.35
10202;BME280;5143;42.584;23.164;2023-03-25T10:19:01;92117.91;;;20.09;35.97
10202;BME280;5143;42.584;23.164;2023-03-25T10:21:39;92112.00;;;19.90;37.76
10202;BME280;5143;42.584;23.164;2023-03-25T10:24:16;92107.00;;;19.66;39.27
10202;BME280;5143;42.584;23.164;2023-03-25T10:26:45;92106.44;;;19.52;39.74
10202;BME280;5143;42.584;23.164;2023-03-25T10:29:15;92105.16;;;19.61;38.93
10202;BME280;5143;42.584;23.164;2023-03-25T10:31:49;92105.88;;;19.61;39.53
10202;BME280;5143;42.584;23.164;2023-03-25T10:34:18;92094.63;;;19.67;38.38
10202;BME280;5143;42.584;23.164;2023-03-25T10:36:48;92095.75;;;19.79;37.72
10202;BME280;5143;42.584;23.164;2023-03-25T10:39:21;92096.66;;;19.81;38.04
10202;BME280;5143;42.584;23.164;2023-03-25T10:41:51;92098.88;;;19.98;37.36
10202;BME280;5143;42.584;23.164;2023-03-25T10:44:24;92093.69;;;20.47;37.09
10202;BME280;5143;42.584;23.164;2023-03-25T10:46:55;92092.56;;;20.58;37.32
10202;BME280;5143;42.584;23.164;2023-03-25T10:49:26;92094.44;;;20.33;37.91
10202;BME280;5143;42.584;23.164;2023-03-25T10:51:54;92083.16;;;20.38;37.53
10202;BME280;5143;42.584;23.164;2023-03-25T10:54:24;92094.06;;;20.36;37.43
10202;BME280;5143;42.584;23.164;2023-03-25T10:56:55;92076.22;;;20.85;36.19
10202;BME280;5143;42.584;23.164;2023-03-25T10:59:28;92073.50;;;21.17;36.51
10202;BME280;5143;42.584;23.164;2023-03-25T11:01:58;92073.72;;;21.44;35.73
10202;BME280;5143;42.584;23.164;2023-03-25T11:04:33;92070.63;;;20.92;36.75
10202;BME280;5143;42.584;23.164;2023-03-25T11:07:08;92075.22;;;20.97;36.85
10202;BME280;5143;42.584;23.164;2023-03-25T11:09:40;92066.94;;;20.90;37.06
10202;BME280;5143;42.584;23.164;2023-03-25T11:12:07;92066.44;;;21.24;35.45
10202;BME280;5143;42.584;23.164;2023-03-25T11:14:36;92067.78;;;21.47;36.91
10202;BME280;5143;42.584;23.164;2023-03-25T11:17:09;92070.28;;;21.60;36.67
10202;BME280;5143;42.584;23.164;2023-03-25T11:19:40;92057.44;;;21.72;35.62
10202;BME280;5143;42.584;23.164;2023-03-25T11:22:10;92060.53;;;21.52;35.89
10202;BME280;5143;42.584;23.164;2023-03-25T11:24:43;92059.97;;;21.53;36.45
10202;BME280;5143;42.584;23.164;2023-03-25T11:27:16;92053.28;;;21.56;36.34
10202;BME280;5143;42.584;23.164;2023-03-25T11:29:51;92050.25;;;21.69;33.82
10202;BME280;5143;42.584;23.164;2023-03-25T11:32:30;92041.22;;;21.61;34.17
10202;BME280;5143;42.584;23.164;2023-03-25T11:35:00;92046.16;;;21.95;33.80
10202;BME280;5143;42.584;23.164;2023-03-25T11:37:28;92039.78;;;22.27;33.21
10202;BME280;5143;42.584;23.164;2023-03-25T11:40:03;92039.34;;;22.30;33.97
10202;BME280;5143;42.584;23.164;2023-03-25T11:42:38;92033.91;;;22.57;33.84
10202;BME280;5143;42.584;23.164;2023-03-25T11:45:18;92047.22;;;22.42;32.42
10202;BME280;5143;42.584;23.164;2023-03-25T11:47:46;92023.22;;;22.12;32.74
10202;BME280;5143;42.584;23.164;2023-03-25T11:50:20;92031.56;;;21.95;34.18
10202;BME280;5143;42.584;23.164;2023-03-25T11:52:48;92022.00;;;22.22;34.37
10202;BME280;5143;42.584;23.164;2023-03-25T11:55:23;92030.94;;;22.21;33.69
10202;BME280;5143;42.584;23.164;2023-03-25T11:57:52;92028.25;;;21.89;33.38
10202;BME280;5143;42.584;23.164;2023-03-25T12:00:35;92014.38;;;21.56;32.74
10202;BME280;5143;42.584;23.164;2023-03-25T12:03:04;92017.16;;;21.32;33.43
10202;BME280;5143;42.584;23.164;2023-03-25T12:05:32;92005.81;;;21.05;33.84
10202;BME280;5143;42.584;23.164;2023-03-25T12:08:04;92019.34;;;21.01;32.96
10202;BME280;5143;42.584;23.164;2023-03-25T12:10:47;92011.03;;;21.01;33.38
10202;BME280;5143;42.584;23.164;2023-03-25T12:13:25;92010.25;;;21.40;34.21
10202;BME280;5143;42.584;23.164;2023-03-25T12:15:59;92007.03;;;21.51;34.90
10202;BME280;5143;42.584;23.164;2023-03-25T12:18:45;92002.66;;;21.90;33.48
10202;BME280;5143;42.584;23.164;2023-03-25T12:21:25;92007.59;;;21.74;34.36
10202;BME280;5143;42.584;23.164;2023-03-25T12:24:08;92006.50;;;21.70;33.48
10202;BME280;5143;42.584;23.164;2023-03-25T12:26:44;92007.25;;;21.70;33.19
10202;BME280;5143;42.584;23.164;2023-03-25T12:29:26;91999.13;;;21.40;34.19
10202;BME280;5143;42.584;23.164;2023-03-25T12:32:05;91997.25;;;21.50;34.20
10202;BME280;5143;42.584;23.164;2023-03-25T12:34:44;91997.63;;;21.47;33.78
10202;BME280;5143;42.584;23.164;2023-03-25T12:37:22;91988.25;;;21.35;34.64
10202;BME280;5143;42.584;23.164;2023-03-25T12:40:06;91982.81;;;21.94;33.94
10202;BME280;5143;42.584;23.164;2023-03-25T12:42:44;91988.97;;;21.85;33.92
10202;BME280;5143;42.584;23.164;2023-03-25T12:45:27;91990.56;;;21.53;33.93
10202;BME280;5143;42.584;23.164;2023-03-25T12:48:05;91989.69;;;21.43;34.13
10202;BME280;5143;42.584;23.164;2023-03-25T12:50:48;91981.06;;;21.32;34.68
10202;BME280;5143;42.584;23.164;2023-03-25T12:53:38;91975.13;;;21.03;35.47
10202;BME280;5143;42.584;23.164;2023-03-25T12:56:18;91967.88;;;21.40;35.55
10202;BME280;5143;42.584;23.164;2023-03-25T12:59:03;91972.69;;;21.39;36.15
10202;BME280;5143;42.584;23.164;2023-03-25T13:01:40;91972.00;;;20.99;36.26
10202;BME280;5143;42.584;23.164;2023-03-25T13:07:02;91965.19;;;19.82;37.39
10202;BME280;5143;42.584;23.164;2023-03-25T13:09:35;91974.09;;;19.66;37.95
10202;BME280;5143;42.584;23.164;2023-03-25T13:12:08;91973.16;;;19.48;38.08
10202;BME280;5143;42.584;23.164;2023-03-25T13:14:44;91979.97;;;19.39;38.56
10202;BME280;5143;42.584;23.164;2023-03-25T13:17:21;91981.25;;;19.23;39.26
10202;BME280;5143;42.584;23.164;2023-03-25T13:19:53;91984.47;;;18.69;40.71
10202;BME280;5143;42.584;23.164;2023-03-25T13:22:23;91985.56;;;18.30;41.46
10202;BME280;5143;42.584;23.164;2023-03-25T13:24:56;91981.41;;;18.08;42.60
10202;BME280;5143;42.584;23.164;2023-03-25T13:27:24;91988.00;;;17.98;43.97
10202;BME280;5143;42.584;23.164;2023-03-25T13:29:58;91998.06;;;17.88;46.80